Metar z połowy godziny Komunikat METAR ze strony awiacja.imgw.pl Metar G30 EPKK METAR EPKK 241130Z VRB03KT 9999 FEW028 11/02 Q1023 =